sensor_id;sensor_type;location;lat;lon;timestamp;temperature;humidity
5059;DHT22;2548;52.050;11.036;2024-03-23T00:54:14;7.90;99.90
5059;DHT22;2548;52.050;11.036;2024-03-23T00:56:41;7.90;99.90
5059;DHT22;2548;52.050;11.036;2024-03-23T00:59:08;7.90;99.90
5059;DHT22;2548;52.050;11.036;2024-03-23T01:01:34;7.90;99.90
5059;DHT22;2548;52.050;11.036;2024-03-23T01:04:02;7.90;99.90
5059;DHT22;2548;52.050;11.036;2024-03-23T01:06:29;7.90;99.90
5059;DHT22;2548;52.050;11.036;2024-03-23T01:08:58;7.90;99.90
5059;DHT22;2548;52.050;11.036;2024-03-23T01:11:24;7.80;99.90
5059;DHT22;2548;52.050;11.036;2024-03-23T01:13:53;7.80;99.90
5059;DHT22;2548;52.050;11.036;2024-03-23T01:16:22;7.70;99.90
5059;DHT22;2548;52.050;11.036;2024-03-23T01:18:49;7.70;99.90
5059;DHT22;2548;52.050;11.036;2024-03-23T01:21:16;7.70;99.90
5059;DHT22;2548;52.050;11.036;2024-03-23T01:23:43;7.70;99.90
5059;DHT22;2548;52.050;11.036;2024-03-23T01:26:12;7.70;99.90
5059;DHT22;2548;52.050;11.036;2024-03-23T01:28:39;7.70;99.90
5059;DHT22;2548;52.050;11.036;2024-03-23T01:31:06;7.70;99.90
5059;DHT22;2548;52.050;11.036;2024-03-23T01:33:33;7.60;99.90
5059;DHT22;2548;52.050;11.036;2024-03-23T01:36:00;7.70;99.90
5059;DHT22;2548;52.050;11.036;2024-03-23T01:38:27;7.70;99.90
5059;DHT22;2548;52.050;11.036;2024-03-23T01:40:56;7.70;99.90
5059;DHT22;2548;52.050;11.036;2024-03-23T01:43:26;7.60;99.90
5059;DHT22;2548;52.050;11.036;2024-03-23T01:45:53;7.60;99.90
5059;DHT22;2548;52.050;11.036;2024-03-23T01:48:20;7.60;99.90
5059;DHT22;2548;52.050;11.036;2024-03-23T01:50:47;7.60;99.90
5059;DHT22;2548;52.050;11.036;2024-03-23T01:53:15;7.60;99.90
5059;DHT22;2548;52.050;11.036;2024-03-23T01:55:43;7.60;99.90
5059;DHT22;2548;52.050;11.036;2024-03-23T01:58:11;7.60;99.90
5059;DHT22;2548;52.050;11.036;2024-03-23T02:00:39;7.60;99.90
5059;DHT22;2548;52.050;11.036;2024-03-23T02:03:22;7.60;99.90
5059;DHT22;2548;52.050;11.036;2024-03-23T02:05:48;7.50;99.90
5059;DHT22;2548;52.050;11.036;2024-03-23T02:08:17;7.30;99.90
5059;DHT22;2548;52.050;11.036;2024-03-23T02:10:44;7.10;99.90
5059;DHT22;2548;52.050;11.036;2024-03-23T02:13:11;7.10;99.90
5059;DHT22;2548;52.050;11.036;2024-03-23T02:15:40;7.00;99.90
5059;DHT22;2548;52.050;11.036;2024-03-23T02:18:08;6.90;99.90
5059;DHT22;2548;52.050;11.036;2024-03-23T02:20:34;6.90;99.90
5059;DHT22;2548;52.050;11.036;2024-03-23T02:23:04;6.90;99.90
5059;DHT22;2548;52.050;11.036;2024-03-23T02:25:32;6.90;99.90
5059;DHT22;2548;52.050;11.036;2024-03-23T02:27:59;6.90;99.90
5059;DHT22;2548;52.050;11.036;2024-03-23T02:30:26;6.80;99.90
5059;DHT22;2548;52.050;11.036;2024-03-23T02:32:53;6.90;99.90
5059;DHT22;2548;52.050;11.036;2024-03-23T02:35:20;6.90;99.90
5059;DHT22;2548;52.050;11.036;2024-03-23T02:37:48;6.90;99.90
5059;DHT22;2548;52.050;11.036;2024-03-23T02:40:16;6.80;99.90
5059;DHT22;2548;52.050;11.036;2024-03-23T02:42:44;6.90;99.90
5059;DHT22;2548;52.050;11.036;2024-03-23T02:45:10;6.80;99.90
5059;DHT22;2548;52.050;11.036;2024-03-23T02:47:38;6.80;99.90
5059;DHT22;2548;52.050;11.036;2024-03-23T02:50:05;6.80;99.90
5059;DHT22;2548;52.050;11.036;2024-03-23T02:52:32;6.70;99.90
5059;DHT22;2548;52.050;11.036;2024-03-23T02:54:59;6.80;99.90
5059;DHT22;2548;52.050;11.036;2024-03-23T02:57:29;6.80;99.90
5059;DHT22;2548;52.050;11.036;2024-03-23T02:59:55;6.80;99.90
5059;DHT22;2548;52.050;11.036;2024-03-23T03:02:23;6.80;99.90
5059;DHT22;2548;52.050;11.036;2024-03-23T03:04:49;6.80;99.90
5059;DHT22;2548;52.050;11.036;2024-03-23T03:07:17;6.80;99.90
5059;DHT22;2548;52.050;11.036;2024-03-23T03:09:43;6.80;99.90
5059;DHT22;2548;52.050;11.036;2024-03-23T03:12:10;6.80;99.90
5059;DHT22;2548;52.050;11.036;2024-03-23T03:14:38;6.80;99.90
5059;DHT22;2548;52.050;11.036;2024-03-23T03:17:06;6.80;99.90
5059;DHT22;2548;52.050;11.036;2024-03-23T03:19:32;6.80;99.90
5059;DHT22;2548;52.050;11.036;2024-03-23T03:22:00;6.80;99.90
5059;DHT22;2548;52.050;11.036;2024-03-23T03:24:26;6.70;99.90
5059;DHT22;2548;52.050;11.036;2024-03-23T03:26:54;6.70;99.90
5059;DHT22;2548;52.050;11.036;2024-03-23T03:29:20;6.70;99.90
5059;DHT22;2548;52.050;11.036;2024-03-23T03:31:49;6.70;99.90
5059;DHT22;2548;52.050;11.036;2024-03-23T03:34:16;6.70;99.90
5059;DHT22;2548;52.050;11.036;2024-03-23T03:36:43;6.60;99.90
5059;DHT22;2548;52.050;11.036;2024-03-23T03:39:10;6.60;99.90
5059;DHT22;2548;52.050;11.036;2024-03-23T03:41:38;6.50;99.90
5059;DHT22;2548;52.050;11.036;2024-03-23T03:44:05;6.60;99.90
5059;DHT22;2548;52.050;11.036;2024-03-23T03:46:32;6.50;99.90
5059;DHT22;2548;52.050;11.036;2024-03-23T03:49:00;6.50;99.90
5059;DHT22;2548;52.050;11.036;2024-03-23T03:51:28;6.50;99.90
5059;DHT22;2548;52.050;11.036;2024-03-23T03:53:54;6.50;99.90
5059;DHT22;2548;52.050;11.036;2024-03-23T03:56:22;6.50;99.90
5059;DHT22;2548;52.050;11.036;2024-03-23T03:58:48;6.50;99.90
5059;DHT22;2548;52.050;11.036;2024-03-23T04:01:16;6.50;99.90
5059;DHT22;2548;52.050;11.036;2024-03-23T04:03:43;6.50;99.90
5059;DHT22;2548;52.050;11.036;2024-03-23T04:06:12;6.60;99.90
5059;DHT22;2548;52.050;11.036;2024-03-23T04:08:41;6.50;99.90
5059;DHT22;2548;52.050;11.036;2024-03-23T04:11:08;6.50;99.90
5059;DHT22;2548;52.050;11.036;2024-03-23T04:13:35;6.50;99.90
5059;DHT22;2548;52.050;11.036;2024-03-23T04:16:03;6.50;99.90
5059;DHT22;2548;52.050;11.036;2024-03-23T04:18:29;6.40;99.90
5059;DHT22;2548;52.050;11.036;2024-03-23T04:20:57;6.40;99.90
5059;DHT22;2548;52.050;11.036;2024-03-23T04:23:25;6.40;99.90
5059;DHT22;2548;52.050;11.036;2024-03-23T04:25:52;6.40;99.90
5059;DHT22;2548;52.050;11.036;2024-03-23T04:28:19;6.40;99.90
5059;DHT22;2548;52.050;11.036;2024-03-23T04:30:47;6.40;99.90
5059;DHT22;2548;52.050;11.036;2024-03-23T04:33:13;6.40;99.90
5059;DHT22;2548;52.050;11.036;2024-03-23T04:35:41;6.40;99.90
5059;DHT22;2548;52.050;11.036;2024-03-23T04:38:07;6.40;99.90
5059;DHT22;2548;52.050;11.036;2024-03-23T04:40:36;6.40;99.90
5059;DHT22;2548;52.050;11.036;2024-03-23T04:43:04;6.40;99.90
5059;DHT22;2548;52.050;11.036;2024-03-23T04:45:32;6.40;99.90
5059;DHT22;2548;52.050;11.036;2024-03-23T04:48:00;6.30;99.90
5059;DHT22;2548;52.050;11.036;2024-03-23T04:50:26;6.30;99.90
5059;DHT22;2548;52.050;11.036;2024-03-23T04:52:54;6.30;99.90
5059;DHT22;2548;52.050;11.036;2024-03-23T04:55:20;6.30;99.90
5059;DHT22;2548;52.050;11.036;2024-03-23T04:57:50;6.30;99.90
5059;DHT22;2548;52.050;11.036;2024-03-23T05:00:17;6.40;99.90
5059;DHT22;2548;52.050;11.036;2024-03-23T05:02:45;6.30;99.90
5059;DHT22;2548;52.050;11.036;2024-03-23T05:05:12;6.30;99.90
5059;DHT22;2548;52.050;11.036;2024-03-23T05:07:40;6.30;99.90
5059;DHT22;2548;52.050;11.036;2024-03-23T05:10:09;6.30;99.90
5059;DHT22;2548;52.050;11.036;2024-03-23T05:12:37;6.30;99.90
5059;DHT22;2548;52.050;11.036;2024-03-23T05:15:06;6.30;99.90
5059;DHT22;2548;52.050;11.036;2024-03-23T05:17:33;6.20;99.90
5059;DHT22;2548;52.050;11.036;2024-03-23T05:20:02;6.10;99.90
5059;DHT22;2548;52.050;11.036;2024-03-23T05:22:29;6.10;99.90
5059;DHT22;2548;52.050;11.036;2024-03-23T05:24:57;6.00;99.90
5059;DHT22;2548;52.050;11.036;2024-03-23T05:27:23;5.90;99.90
5059;DHT22;2548;52.050;11.036;2024-03-23T05:29:50;5.90;99.90
5059;DHT22;2548;52.050;11.036;2024-03-23T05:32:18;5.90;99.90
5059;DHT22;2548;52.050;11.036;2024-03-23T05:34:47;5.80;99.90
5059;DHT22;2548;52.050;11.036;2024-03-23T05:37:16;5.70;99.90
5059;DHT22;2548;52.050;11.036;2024-03-23T05:39:43;5.70;99.90
5059;DHT22;2548;52.050;11.036;2024-03-23T05:42:10;5.70;99.90
5059;DHT22;2548;52.050;11.036;2024-03-23T05:44:37;5.70;99.90
5059;DHT22;2548;52.050;11.036;2024-03-23T05:47:04;5.70;99.90
5059;DHT22;2548;52.050;11.036;2024-03-23T05:49:33;5.80;99.90
5059;DHT22;2548;52.050;11.036;2024-03-23T05:52:00;5.80;99.90
5059;DHT22;2548;52.050;11.036;2024-03-23T05:54:29;5.90;99.90
5059;DHT22;2548;52.050;11.036;2024-03-23T05:56:56;5.80;99.90
5059;DHT22;2548;52.050;11.036;2024-03-23T05:59:24;5.90;99.90
5059;DHT22;2548;52.050;11.036;2024-03-23T06:01:51;5.90;99.90
5059;DHT22;2548;52.050;11.036;2024-03-23T06:04:18;5.90;99.90
5059;DHT22;2548;52.050;11.036;2024-03-23T06:06:46;6.00;99.90
5059;DHT22;2548;52.050;11.036;2024-03-23T06:09:13;6.00;99.90
5059;DHT22;2548;52.050;11.036;2024-03-23T06:11:39;6.00;99.90
5059;DHT22;2548;52.050;11.036;2024-03-23T06:14:07;6.00;99.90
5059;DHT22;2548;52.050;11.036;2024-03-23T06:16:33;6.00;99.90
5059;DHT22;2548;52.050;11.036;2024-03-23T06:19:00;6.00;99.90
5059;DHT22;2548;52.050;11.036;2024-03-23T06:21:29;6.00;99.90
5059;DHT22;2548;52.050;11.036;2024-03-23T06:23:58;6.00;99.90
5059;DHT22;2548;52.050;11.036;2024-03-23T06:26:24;6.00;99.90
5059;DHT22;2548;52.050;11.036;2024-03-23T06:28:52;6.00;99.90
5059;DHT22;2548;52.050;11.036;2024-03-23T06:31:18;6.00;99.90
5059;DHT22;2548;52.050;11.036;2024-03-23T06:33:45;5.90;99.90
5059;DHT22;2548;52.050;11.036;2024-03-23T06:36:12;5.90;99.90
5059;DHT22;2548;52.050;11.036;2024-03-23T06:38:39;5.90;99.90
5059;DHT22;2548;52.050;11.036;2024-03-23T06:41:07;5.90;99.90
5059;DHT22;2548;52.050;11.036;2024-03-23T06:43:35;5.90;99.90
5059;DHT22;2548;52.050;11.036;2024-03-23T06:46:03;5.90;99.90
5059;DHT22;2548;52.050;11.036;2024-03-23T06:48:31;5.90;99.90
5059;DHT22;2548;52.050;11.036;2024-03-23T06:50:57;5.90;99.90
5059;DHT22;2548;52.050;11.036;2024-03-23T06:53:25;5.90;99.90
5059;DHT22;2548;52.050;11.036;2024-03-23T06:55:52;5.90;99.90
5059;DHT22;2548;52.050;11.036;2024-03-23T06:58:23;5.90;99.90
5059;DHT22;2548;52.050;11.036;2024-03-23T07:00:50;5.90;99.90
5059;DHT22;2548;52.050;11.036;2024-03-23T07:03:18;5.90;99.90
5059;DHT22;2548;52.050;11.036;2024-03-23T07:05:44;5.90;99.90
5059;DHT22;2548;52.050;11.036;2024-03-23T07:08:12;6.00;99.90
5059;DHT22;2548;52.050;11.036;2024-03-23T07:10:39;6.00;99.90
5059;DHT22;2548;52.050;11.036;2024-03-23T07:13:07;6.00;99.90
5059;DHT22;2548;52.050;11.036;2024-03-23T07:15:34;6.00;99.90
5059;DHT22;2548;52.050;11.036;2024-03-23T07:18:02;6.00;99.90
5059;DHT22;2548;52.050;11.036;2024-03-23T07:20:29;6.00;99.90
5059;DHT22;2548;52.050;11.036;2024-03-23T07:22:57;6.00;99.90
5059;DHT22;2548;52.050;11.036;2024-03-23T07:25:23;6.00;99.90
5059;DHT22;2548;52.050;11.036;2024-03-23T07:27:53;6.00;99.90
5059;DHT22;2548;52.050;11.036;2024-03-23T07:30:19;6.00;99.90
5059;DHT22;2548;52.050;11.036;2024-03-23T07:32:48;6.00;99.90
5059;DHT22;2548;52.050;11.036;2024-03-23T07:35:15;6.10;99.90
5059;DHT22;2548;52.050;11.036;2024-03-23T07:37:43;6.10;99.90
5059;DHT22;2548;52.050;11.036;2024-03-23T07:40:10;6.00;99.90
5059;DHT22;2548;52.050;11.036;2024-03-23T07:42:38;5.90;99.90
5059;DHT22;2548;52.050;11.036;2024-03-23T07:45:05;5.90;99.90
5059;DHT22;2548;52.050;11.036;2024-03-23T07:47:33;5.90;99.90
5059;DHT22;2548;52.050;11.036;2024-03-23T07:50:00;5.80;99.90
5059;DHT22;2548;52.050;11.036;2024-03-23T07:52:28;5.80;99.90
5059;DHT22;2548;52.050;11.036;2024-03-23T07:54:55;5.80;99.90
5059;DHT22;2548;52.050;11.036;2024-03-23T07:57:22;5.80;99.90
5059;DHT22;2548;52.050;11.036;2024-03-23T07:59:49;5.80;99.90
5059;DHT22;2548;52.050;11.036;2024-03-23T08:02:16;5.90;99.90
5059;DHT22;2548;52.050;11.036;2024-03-23T08:04:42;5.80;99.90
5059;DHT22;2548;52.050;11.036;2024-03-23T08:07:11;5.90;99.90
5059;DHT22;2548;52.050;11.036;2024-03-23T08:09:38;5.90;99.90
5059;DHT22;2548;52.050;11.036;2024-03-23T08:12:05;5.80;99.90
5059;DHT22;2548;52.050;11.036;2024-03-23T08:14:32;5.80;99.90
5059;DHT22;2548;52.050;11.036;2024-03-23T08:16:59;5.90;99.90
5059;DHT22;2548;52.050;11.036;2024-03-23T08:19:26;5.90;99.90
5059;DHT22;2548;52.050;11.036;2024-03-23T08:21:53;5.90;99.90
5059;DHT22;2548;52.050;11.036;2024-03-23T08:24:22;6.00;99.90
5059;DHT22;2548;52.050;11.036;2024-03-23T08:26:49;6.00;99.90
5059;DHT22;2548;52.050;11.036;2024-03-23T08:29:15;6.00;99.90
5059;DHT22;2548;52.050;11.036;2024-03-23T08:31:43;6.00;99.90
5059;DHT22;2548;52.050;11.036;2024-03-23T08:34:09;6.00;99.90
5059;DHT22;2548;52.050;11.036;2024-03-23T08:36:37;6.10;99.90
5059;DHT22;2548;52.050;11.036;2024-03-23T08:39:03;6.10;99.90
5059;DHT22;2548;52.050;11.036;2024-03-23T08:41:32;6.10;99.90
5059;DHT22;2548;52.050;11.036;2024-03-23T08:43:58;6.10;99.90
5059;DHT22;2548;52.050;11.036;2024-03-23T08:46:30;6.10;99.90
5059;DHT22;2548;52.050;11.036;2024-03-23T08:49:00;6.10;99.90
5059;DHT22;2548;52.050;11.036;2024-03-23T08:51:40;6.20;99.90
5059;DHT22;2548;52.050;11.036;2024-03-23T08:54:12;6.20;99.90
5059;DHT22;2548;52.050;11.036;2024-03-23T08:56:41;6.20;99.90
5059;DHT22;2548;52.050;11.036;2024-03-23T08:59:07;6.30;99.90
5059;DHT22;2548;52.050;11.036;2024-03-23T09:01:35;6.30;99.90
5059;DHT22;2548;52.050;11.036;2024-03-23T09:04:01;6.30;99.90
5059;DHT22;2548;52.050;11.036;2024-03-23T09:06:29;6.30;99.90
5059;DHT22;2548;52.050;11.036;2024-03-23T09:08:55;6.40;99.90
5059;DHT22;2548;52.050;11.036;2024-03-23T09:11:23;6.40;99.90
5059;DHT22;2548;52.050;11.036;2024-03-23T09:13:51;6.50;99.90
5059;DHT22;2548;52.050;11.036;2024-03-23T09:16:18;6.60;99.90
5059;DHT22;2548;52.050;11.036;2024-03-23T09:18:44;6.60;99.90
5059;DHT22;2548;52.050;11.036;2024-03-23T09:21:12;6.70;99.90
5059;DHT22;2548;52.050;11.036;2024-03-23T09:23:42;6.80;99.90
5059;DHT22;2548;52.050;11.036;2024-03-23T09:26:09;6.80;99.90
5059;DHT22;2548;52.050;11.036;2024-03-23T09:28:37;6.90;99.90
5059;DHT22;2548;52.050;11.036;2024-03-23T09:31:05;6.90;99.90
5059;DHT22;2548;52.050;11.036;2024-03-23T09:33:33;7.00;99.90
5059;DHT22;2548;52.050;11.036;2024-03-23T09:36:03;7.00;99.90
5059;DHT22;2548;52.050;11.036;2024-03-23T09:38:31;7.00;99.90
5059;DHT22;2548;52.050;11.036;2024-03-23T09:40:58;7.00;99.90
5059;DHT22;2548;52.050;11.036;2024-03-23T09:43:25;6.90;99.90
5059;DHT22;2548;52.050;11.036;2024-03-23T09:45:52;7.00;99.90
5059;DHT22;2548;52.050;11.036;2024-03-23T09:48:21;7.00;99.90
5059;DHT22;2548;52.050;11.036;2024-03-23T09:50:48;7.00;99.90
5059;DHT22;2548;52.050;11.036;2024-03-23T09:53:16;7.10;99.90
5059;DHT22;2548;52.050;11.036;2024-03-23T09:55:43;7.20;99.90
5059;DHT22;2548;52.050;11.036;2024-03-23T09:58:13;7.30;99.90
5059;DHT22;2548;52.050;11.036;2024-03-23T10:00:40;7.30;99.90
5059;DHT22;2548;52.050;11.036;2024-03-23T10:03:07;7.40;99.90
5059;DHT22;2548;52.050;11.036;2024-03-23T10:05:36;7.30;99.90
5059;DHT22;2548;52.050;11.036;2024-03-23T10:08:18;7.30;99.90
5059;DHT22;2548;52.050;11.036;2024-03-23T10:10:45;7.20;99.90
5059;DHT22;2548;52.050;11.036;2024-03-23T10:13:24;7.00;99.90
5059;DHT22;2548;52.050;11.036;2024-03-23T10:16:00;6.90;99.90
5059;DHT22;2548;52.050;11.036;2024-03-23T10:18:27;6.70;99.90
5059;DHT22;2548;52.050;11.036;2024-03-23T10:21:08;6.60;99.90
5059;DHT22;2548;52.050;11.036;2024-03-23T10:23:38;6.40;99.90
5059;DHT22;2548;52.050;11.036;2024-03-23T10:26:16;6.20;99.90
5059;DHT22;2548;52.050;11.036;2024-03-23T10:28:54;6.20;99.90
5059;DHT22;2548;52.050;11.036;2024-03-23T10:31:21;6.30;99.90
5059;DHT22;2548;52.050;11.036;2024-03-23T10:33:49;6.40;99.90
5059;DHT22;2548;52.050;11.036;2024-03-23T10:36:18;6.60;99.90
5059;DHT22;2548;52.050;11.036;2024-03-23T10:38:46;6.90;99.90
5059;DHT22;2548;52.050;11.036;2024-03-23T10:41:13;7.00;99.90
5059;DHT22;2548;52.050;11.036;2024-03-23T10:43:43;7.20;99.90
5059;DHT22;2548;52.050;11.036;2024-03-23T10:46:10;7.40;99.90
5059;DHT22;2548;52.050;11.036;2024-03-23T10:48:38;7.60;99.90
5059;DHT22;2548;52.050;11.036;2024-03-23T10:51:06;7.70;99.90
5059;DHT22;2548;52.050;11.036;2024-03-23T10:53:36;8.00;99.90
5059;DHT22;2548;52.050;11.036;2024-03-23T10:56:04;8.30;99.90
5059;DHT22;2548;52.050;11.036;2024-03-23T10:58:36;8.60;99.90
5059;DHT22;2548;52.050;11.036;2024-03-23T11:01:04;8.80;99.90
5059;DHT22;2548;52.050;11.036;2024-03-23T11:03:33;8.80;99.90
5059;DHT22;2548;52.050;11.036;2024-03-23T11:06:00;8.60;99.90
5059;DHT22;2548;52.050;11.036;2024-03-23T11:08:31;8.60;99.90
5059;DHT22;2548;52.050;11.036;2024-03-23T11:11:17;8.60;99.90
5059;DHT22;2548;52.050;11.036;2024-03-23T11:13:46;8.60;99.90
5059;DHT22;2548;52.050;11.036;2024-03-23T11:16:17;8.60;99.90
5059;DHT22;2548;52.050;11.036;2024-03-23T11:18:44;8.50;99.90
5059;DHT22;2548;52.050;11.036;2024-03-23T11:24:17;8.50;99.90
5059;DHT22;2548;52.050;11.036;2024-03-23T11:26:46;8.70;99.90
5059;DHT22;2548;52.050;11.036;2024-03-23T11:29:14;8.90;99.90
5059;DHT22;2548;52.050;11.036;2024-03-23T11:31:46;9.20;99.90
5059;DHT22;2548;52.050;11.036;2024-03-23T11:34:15;9.30;99.90
5059;DHT22;2548;52.050;11.036;2024-03-23T11:36:42;9.50;99.90
5059;DHT22;2548;52.050;11.036;2024-03-23T11:39:13;9.60;99.90
5059;DHT22;2548;52.050;11.036;2024-03-23T11:41:49;9.70;99.90
5059;DHT22;2548;52.050;11.036;2024-03-23T11:44:18;9.80;99.90
5059;DHT22;2548;52.050;11.036;2024-03-23T11:46:44;10.00;99.90
5059;DHT22;2548;52.050;11.036;2024-03-23T11:49:22;10.20;99.90
5059;DHT22;2548;52.050;11.036;2024-03-23T11:51:49;10.40;99.90
5059;DHT22;2548;52.050;11.036;2024-03-23T11:54:19;10.50;99.90
5059;DHT22;2548;52.050;11.036;2024-03-23T11:56:58;10.50;99.90
5059;DHT22;2548;52.050;11.036;2024-03-23T11:59:33;10.40;99.90
5059;DHT22;2548;52.050;11.036;2024-03-23T12:02:00;10.30;99.90
5059;DHT22;2548;52.050;11.036;2024-03-23T12:04:29;10.40;99.90
5059;DHT22;2548;52.050;11.036;2024-03-23T12:07:12;10.40;99.90
5059;DHT22;2548;52.050;11.036;2024-03-23T12:09:40;10.50;99.90
5059;DHT22;2548;52.050;11.036;2024-03-23T12:12:14;10.70;99.90
5059;DHT22;2548;52.050;11.036;2024-03-23T12:14:42;10.80;99.90
5059;DHT22;2548;52.050;11.036;2024-03-23T12:17:10;10.80;99.90
5059;DHT22;2548;52.050;11.036;2024-03-23T12:19:38;10.90;99.90
5059;DHT22;2548;52.050;11.036;2024-03-23T12:22:05;10.90;99.90
5059;DHT22;2548;52.050;11.036;2024-03-23T12:24:33;10.80;99.90
5059;DHT22;2548;52.050;11.036;2024-03-23T12:27:01;10.70;99.90
5059;DHT22;2548;52.050;11.036;2024-03-23T12:29:30;10.60;99.90
5059;DHT22;2548;52.050;11.036;2024-03-23T12:31:59;10.80;99.90
5059;DHT22;2548;52.050;11.036;2024-03-23T12:34:27;10.70;99.90
5059;DHT22;2548;52.050;11.036;2024-03-23T12:36:54;10.50;99.90
5059;DHT22;2548;52.050;11.036;2024-03-23T12:39:21;9.80;99.90
5059;DHT22;2548;52.050;11.036;2024-03-23T12:41:48;9.40;99.90
5059;DHT22;2548;52.050;11.036;2024-03-23T12:44:16;8.90;99.90
5059;DHT22;2548;52.050;11.036;2024-03-23T12:46:44;8.50;99.90
5059;DHT22;2548;52.050;11.036;2024-03-23T12:49:12;8.20;99.90
5059;DHT22;2548;52.050;11.036;2024-03-23T12:51:38;8.00;99.90
5059;DHT22;2548;52.050;11.036;2024-03-23T12:54:06;7.80;99.90
5059;DHT22;2548;52.050;11.036;2024-03-23T12:56:32;7.60;99.90
5059;DHT22;2548;52.050;11.036;2024-03-23T12:59:00;7.30;99.90
5059;DHT22;2548;52.050;11.036;2024-03-23T13:01:26;6.90;99.90
5059;DHT22;2548;52.050;11.036;2024-03-23T13:03:55;6.60;99.90
5059;DHT22;2548;52.050;11.036;2024-03-23T13:06:22;6.40;99.90
5059;DHT22;2548;52.050;11.036;2024-03-23T13:08:49;6.30;99.90
5059;DHT22;2548;52.050;11.036;2024-03-23T13:11:16;6.20;99.90
5059;DHT22;2548;52.050;11.036;2024-03-23T13:13:44;6.00;99.90
5059;DHT22;2548;52.050;11.036;2024-03-23T13:16:10;6.20;99.90
5059;DHT22;2548;52.050;11.036;2024-03-23T13:18:38;6.50;99.90
5059;DHT22;2548;52.050;11.036;2024-03-23T13:21:06;6.90;99.90
5059;DHT22;2548;52.050;11.036;2024-03-23T13:23:33;7.20;99.90
5059;DHT22;2548;52.050;11.036;2024-03-23T13:26:02;7.60;99.90
5059;DHT22;2548;52.050;11.036;2024-03-23T13:28:29;7.90;99.90
5059;DHT22;2548;52.050;11.036;2024-03-23T13:30:56;8.10;99.90
5059;DHT22;2548;52.050;11.036;2024-03-23T13:33:25;8.30;99.90
5059;DHT22;2548;52.050;11.036;2024-03-23T13:35:51;8.30;99.90
5059;DHT22;2548;52.050;11.036;2024-03-23T13:38:21;8.20;99.90
5059;DHT22;2548;52.050;11.036;2024-03-23T13:40:51;8.10;99.90
5059;DHT22;2548;52.050;11.036;2024-03-23T13:43:19;7.90;99.90
5059;DHT22;2548;52.050;11.036;2024-03-23T13:45:46;7.70;99.90
5059;DHT22;2548;52.050;11.036;2024-03-23T13:48:14;7.50;99.90
5059;DHT22;2548;52.050;11.036;2024-03-23T13:50:41;7.40;99.90
5059;DHT22;2548;52.050;11.036;2024-03-23T13:53:08;7.30;99.90
5059;DHT22;2548;52.050;11.036;2024-03-23T13:55:36;7.20;99.90
5059;DHT22;2548;52.050;11.036;2024-03-23T13:58:04;6.90;99.90
5059;DHT22;2548;52.050;11.036;2024-03-23T14:00:30;6.50;99.90
5059;DHT22;2548;52.050;11.036;2024-03-23T14:02:59;6.00;99.90
5059;DHT22;2548;52.050;11.036;2024-03-23T14:05:25;5.60;99.90
5059;DHT22;2548;52.050;11.036;2024-03-23T14:07:52;5.40;99.90
5059;DHT22;2548;52.050;11.036;2024-03-23T14:10:19;5.20;99.90
5059;DHT22;2548;52.050;11.036;2024-03-23T14:12:48;5.00;99.90
5059;DHT22;2548;52.050;11.036;2024-03-23T14:15:15;4.90;99.90
5059;DHT22;2548;52.050;11.036;2024-03-23T14:17:42;5.00;99.90
5059;DHT22;2548;52.050;11.036;2024-03-23T14:20:10;5.10;99.90
5059;DHT22;2548;52.050;11.036;2024-03-23T14:22:37;5.20;99.90
5059;DHT22;2548;52.050;11.036;2024-03-23T14:25:05;5.20;99.90
5059;DHT22;2548;52.050;11.036;2024-03-23T14:27:33;5.30;99.90
5059;DHT22;2548;52.050;11.036;2024-03-23T14:30:05;5.40;99.90
5059;DHT22;2548;52.050;11.036;2024-03-23T14:32:33;5.50;99.90
5059;DHT22;2548;52.050;11.036;2024-03-23T14:35:00;5.60;99.90
5059;DHT22;2548;52.050;11.036;2024-03-23T14:37:27;5.80;99.90
5059;DHT22;2548;52.050;11.036;2024-03-23T14:39:55;6.00;99.90
5059;DHT22;2548;52.050;11.036;2024-03-23T14:42:23;6.30;99.90
5059;DHT22;2548;52.050;11.036;2024-03-23T14:44:50;6.60;99.90
5059;DHT22;2548;52.050;11.036;2024-03-23T14:47:19;6.80;99.90
5059;DHT22;2548;52.050;11.036;2024-03-23T14:49:47;7.00;99.90
5059;DHT22;2548;52.050;11.036;2024-03-23T14:52:16;7.00;99.90
5059;DHT22;2548;52.050;11.036;2024-03-23T14:54:43;7.10;99.90
5059;DHT22;2548;52.050;11.036;2024-03-23T14:57:11;7.10;99.90
5059;DHT22;2548;52.050;11.036;2024-03-23T14:59:38;7.20;99.90
5059;DHT22;2548;52.050;11.036;2024-03-23T15:02:06;7.20;99.90
5059;DHT22;2548;52.050;11.036;2024-03-23T15:04:34;7.30;99.90
5059;DHT22;2548;52.050;11.036;2024-03-23T15:07:02;7.20;99.90
5059;DHT22;2548;52.050;11.036;2024-03-23T15:09:29;7.10;99.90
5059;DHT22;2548;52.050;11.036;2024-03-23T15:11:57;6.90;99.90
5059;DHT22;2548;52.050;11.036;2024-03-23T15:14:24;6.70;99.90
5059;DHT22;2548;52.050;11.036;2024-03-23T15:16:51;6.70;99.90
5059;DHT22;2548;52.050;11.036;2024-03-23T15:19:18;6.60;99.90
5059;DHT22;2548;52.050;11.036;2024-03-23T15:21:47;6.60;99.90
5059;DHT22;2548;52.050;11.036;2024-03-23T15:24:14;6.60;99.90
5059;DHT22;2548;52.050;11.036;2024-03-23T15:26:41;6.60;99.90
5059;DHT22;2548;52.050;11.036;2024-03-23T15:29:08;6.60;99.90
5059;DHT22;2548;52.050;11.036;2024-03-23T15:31:38;6.50;99.90
5059;DHT22;2548;52.050;11.036;2024-03-23T15:34:05;6.40;99.90
5059;DHT22;2548;52.050;11.036;2024-03-23T15:36:36;6.20;99.90
5059;DHT22;2548;52.050;11.036;2024-03-23T15:39:06;6.00;99.90
5059;DHT22;2548;52.050;11.036;2024-03-23T15:41:33;5.90;99.90
5059;DHT22;2548;52.050;11.036;2024-03-23T15:44:01;5.80;99.90
5059;DHT22;2548;52.050;11.036;2024-03-23T15:46:29;5.90;99.90
5059;DHT22;2548;52.050;11.036;2024-03-23T15:48:55;6.00;99.90
5059;DHT22;2548;52.050;11.036;2024-03-23T15:51:23;6.00;99.90
5059;DHT22;2548;52.050;11.036;2024-03-23T15:53:50;5.90;99.90
5059;DHT22;2548;52.050;11.036;2024-03-23T15:56:24;5.90;99.90
5059;DHT22;2548;52.050;11.036;2024-03-23T15:58:51;5.90;99.90
5059;DHT22;2548;52.050;11.036;2024-03-23T16:01:18;6.00;99.90
5059;DHT22;2548;52.050;11.036;2024-03-23T16:03:45;6.00;99.90
5059;DHT22;2548;52.050;11.036;2024-03-23T16:06:13;6.00;99.90
5059;DHT22;2548;52.050;11.036;2024-03-23T16:08:39;6.00;99.90
5059;DHT22;2548;52.050;11.036;2024-03-23T16:11:07;6.10;99.90
5059;DHT22;2548;52.050;11.036;2024-03-23T16:13:37;6.20;99.90
5059;DHT22;2548;52.050;11.036;2024-03-23T16:16:04;6.20;99.90
5059;DHT22;2548;52.050;11.036;2024-03-23T16:18:34;6.20;99.90
5059;DHT22;2548;52.050;11.036;2024-03-23T16:21:01;6.20;99.90
5059;DHT22;2548;52.050;11.036;2024-03-23T16:23:29;6.20;99.90
5059;DHT22;2548;52.050;11.036;2024-03-23T16:25:56;6.30;99.90
5059;DHT22;2548;52.050;11.036;2024-03-23T16:28:24;6.30;99.90
5059;DHT22;2548;52.050;11.036;2024-03-23T16:30:56;6.30;99.90
5059;DHT22;2548;52.050;11.036;2024-03-23T16:33:24;6.30;99.90
5059;DHT22;2548;52.050;11.036;2024-03-23T16:35:58;6.30;99.90
5059;DHT22;2548;52.050;11.036;2024-03-23T16:38:26;6.20;99.90
5059;DHT22;2548;52.050;11.036;2024-03-23T16:40:55;6.20;99.90
5059;DHT22;2548;52.050;11.036;2024-03-23T16:43:22;6.20;99.90
5059;DHT22;2548;52.050;11.036;2024-03-23T16:45:56;6.10;99.90
5059;DHT22;2548;52.050;11.036;2024-03-23T16:48:23;6.10;99.90
5059;DHT22;2548;52.050;11.036;2024-03-23T16:50:50;6.00;99.90
5059;DHT22;2548;52.050;11.036;2024-03-23T16:53:17;6.00;99.90
5059;DHT22;2548;52.050;11.036;2024-03-23T16:55:45;6.00;99.90
5059;DHT22;2548;52.050;11.036;2024-03-23T16:58:11;6.00;99.90
5059;DHT22;2548;52.050;11.036;2024-03-23T17:00:40;6.00;99.90